Terminal Aerodrome Forecast
Issued by NWS

Home | Current Version | Previous Version | Text Only | Print | Product List | Glossary On
Versions: 1 2 3 4 5 6 7 8 9 10 11 12 13 14 15 16 17 18
000
FTUS43 KIWX 300608 AAA
TAFSBN
TAF AMD
KSBN 300608Z 3006/3106 06006KT P6SM SCT015
      TEMPO 3009/3012 5SM BR BKN015
     FM301600 04006KT P6SM VCSH BKN040
     FM302100 35007KT P6SM VCTS BKN040CB
     FM310300 02005KT P6SM BKN080=

USA.gov is the U.S. government's official web portal to all federal, state and local government web resources and services.